createdAt,value
2022-09-04T00:03:02.017Z,15.03
2022-09-04T00:08:06.134Z,14.92
2022-09-04T00:13:10.340Z,14.86
2022-09-04T00:18:14.484Z,14.82
2022-09-04T00:23:18.627Z,14.79
2022-09-04T00:28:22.826Z,14.71
2022-09-04T00:33:26.961Z,14.67
2022-09-04T00:38:31.122Z,14.61
2022-09-04T00:48:39.436Z,14.54
2022-09-04T00:53:43.627Z,14.49
2022-09-04T00:58:45.856Z,14.47
2022-09-04T01:03:50.047Z,14.42
2022-09-04T01:08:56.071Z,14.40
2022-09-04T01:13:56.464Z,14.39
2022-09-04T01:19:00.600Z,14.40
2022-09-04T01:24:04.774Z,14.41
2022-09-04T01:29:08.943Z,14.33
2022-09-04T01:34:13.081Z,14.28
2022-09-04T01:39:17.254Z,14.24
2022-09-04T01:44:21.406Z,14.20
2022-09-04T01:49:25.603Z,14.17
2022-09-04T01:54:29.743Z,14.10
2022-09-04T01:59:33.892Z,14.01
2022-09-04T02:04:38.040Z,13.95
2022-09-04T02:09:42.195Z,13.94
2022-09-04T02:14:46.376Z,13.90
2022-09-04T02:19:50.532Z,13.82
2022-09-04T02:24:54.715Z,13.79
2022-09-04T02:29:58.876Z,13.77
2022-09-04T02:35:03.041Z,13.76
2022-09-04T02:40:07.168Z,13.79
2022-09-04T02:45:11.343Z,13.76
2022-09-04T02:50:15.515Z,13.73
2022-09-04T02:55:17.780Z,13.71
2022-09-04T03:00:21.908Z,13.72
2022-09-04T03:05:26.099Z,13.72
2022-09-04T03:10:30.233Z,13.70
2022-09-04T03:15:34.428Z,13.70
2022-09-04T03:20:38.588Z,13.60
2022-09-04T03:25:42.735Z,13.55
2022-09-04T03:30:46.907Z,13.53
2022-09-04T03:35:51.069Z,13.59
2022-09-04T03:40:55.209Z,13.65
2022-09-04T03:45:59.407Z,13.67
2022-09-04T03:51:03.519Z,13.64
2022-09-04T03:56:07.683Z,13.57
2022-09-04T04:01:11.920Z,13.51
2022-09-04T04:06:16.041Z,13.46
2022-09-04T04:11:20.186Z,13.49
2022-09-04T04:16:24.696Z,13.49
2022-09-04T04:21:28.516Z,13.47
2022-09-04T04:26:32.671Z,13.39
2022-09-04T04:31:36.861Z,13.36
2022-09-04T04:36:41.003Z,13.40
2022-09-04T04:41:43.249Z,13.43
2022-09-04T04:46:47.499Z,13.42
2022-09-04T04:51:49.681Z,13.41
2022-09-04T04:56:53.872Z,13.34
2022-09-04T05:01:58.078Z,13.33
2022-09-04T05:07:02.188Z,13.32
2022-09-04T05:12:06.332Z,13.34
2022-09-04T05:17:10.606Z,13.46
2022-09-04T05:22:14.637Z,13.48
2022-09-04T05:27:18.846Z,13.57
2022-09-04T05:32:22.991Z,13.65
2022-09-04T05:37:27.138Z,13.71
2022-09-04T05:42:31.299Z,13.78
2022-09-04T05:47:35.445Z,13.90
2022-09-04T05:52:39.628Z,13.98
2022-09-04T05:57:43.779Z,14.10
2022-09-04T06:02:47.999Z,14.23
2022-09-04T06:07:52.111Z,14.35
2022-09-04T06:12:56.246Z,14.55
2022-09-04T06:18:00.403Z,14.85
2022-09-04T06:23:04.612Z,14.98
2022-09-04T06:28:08.817Z,15.23
2022-09-04T06:33:12.884Z,15.51
2022-09-04T06:38:15.160Z,15.71
2022-09-04T06:43:19.334Z,15.98
2022-09-04T06:48:21.630Z,16.27
2022-09-04T06:53:25.769Z,16.56
2022-09-04T06:58:29.916Z,16.78
2022-09-04T07:03:34.065Z,16.91
2022-09-04T07:08:38.235Z,17.11
2022-09-04T07:13:42.397Z,17.39
2022-09-04T07:18:46.585Z,17.68
2022-09-04T07:23:50.806Z,17.98
2022-09-04T07:28:54.887Z,18.27
2022-09-04T07:33:59.035Z,18.56
2022-09-04T07:39:03.201Z,18.79
2022-09-04T07:44:07.328Z,18.99
2022-09-04T07:49:11.524Z,19.21
2022-09-04T07:54:22.328Z,19.48
2022-09-04T07:59:19.875Z,19.75
2022-09-04T08:04:24.088Z,19.96
2022-09-04T08:09:28.143Z,20.22
2022-09-04T08:14:32.294Z,20.44
2022-09-04T08:19:36.475Z,20.67
2022-09-04T08:24:40.621Z,20.83
2022-09-04T08:29:44.780Z,21.09
2022-09-04T08:34:47.046Z,21.27
2022-09-04T08:39:51.348Z,21.42
2022-09-04T08:44:53.481Z,21.56
2022-09-04T08:49:57.647Z,21.68
2022-09-04T08:54:59.888Z,21.95
2022-09-04T09:00:04.097Z,22.14
2022-09-04T09:05:08.222Z,22.24
2022-09-04T09:10:10.506Z,22.35
2022-09-04T09:15:14.691Z,22.58
2022-09-04T09:20:20.073Z,22.85
2022-09-04T09:25:23.001Z,23.08
2022-09-04T09:30:27.208Z,23.09
2022-09-04T09:35:31.275Z,23.37
2022-09-04T09:40:35.471Z,23.48
2022-09-04T09:45:39.672Z,23.64
2022-09-04T09:50:43.764Z,23.78
2022-09-04T09:55:47.912Z,24.04
2022-09-04T10:00:52.158Z,24.18
2022-09-04T10:05:56.270Z,24.20
2022-09-04T10:11:00.414Z,24.37
2022-09-04T10:16:04.566Z,24.57
2022-09-04T10:21:08.701Z,24.83
2022-09-04T10:26:12.869Z,24.67
2022-09-04T10:31:17.121Z,24.34
2022-09-04T10:36:21.257Z,23.98
2022-09-04T10:41:25.357Z,24.41
2022-09-04T10:46:29.530Z,24.40
2022-09-04T10:51:33.707Z,24.06
2022-09-04T10:56:35.965Z,23.92
2022-09-04T11:01:40.107Z,23.86
2022-09-04T11:06:42.393Z,24.17
2022-09-04T11:11:46.520Z,24.68
2022-09-04T11:16:50.810Z,25.25
2022-09-04T11:21:54.838Z,25.00
2022-09-04T11:26:59.038Z,25.54
2022-09-04T11:32:03.222Z,25.86
2022-09-04T11:37:07.325Z,25.87
2022-09-04T11:42:11.511Z,25.56
2022-09-04T11:47:15.630Z,25.25
2022-09-04T11:52:19.815Z,25.02
2022-09-04T11:57:23.959Z,25.01
2022-09-04T12:02:28.197Z,25.17
2022-09-04T12:07:40.639Z,25.36
2022-09-04T12:12:36.432Z,25.37
2022-09-04T12:17:40.603Z,26.14
2022-09-04T12:22:44.726Z,26.57
2022-09-04T12:27:48.885Z,27.06
2022-09-04T12:32:53.075Z,27.18
2022-09-04T12:37:57.231Z,27.25
2022-09-04T12:43:01.578Z,26.97
2022-09-04T12:48:05.563Z,27.04
2022-09-04T12:53:07.819Z,27.41
2022-09-04T12:58:12.015Z,27.43
2022-09-04T13:03:14.239Z,27.56
2022-09-04T13:08:18.427Z,27.90
2022-09-04T13:18:26.712Z,28.35
2022-09-04T13:23:35.284Z,28.49
2022-09-04T13:28:35.059Z,28.53
2022-09-04T13:33:39.218Z,28.68
2022-09-04T13:38:43.357Z,27.92
2022-09-04T13:43:47.504Z,27.45
2022-09-04T13:48:51.886Z,27.25
2022-09-04T13:53:55.850Z,27.05
2022-09-04T13:59:00.031Z,26.92
2022-09-04T14:04:04.179Z,26.85
2022-09-04T14:09:08.344Z,26.90
2022-09-04T14:14:12.462Z,27.33
2022-09-04T14:19:17.112Z,27.68
2022-09-04T14:24:20.783Z,27.49
2022-09-04T14:29:24.967Z,27.39
2022-09-04T14:34:29.099Z,27.30
2022-09-04T14:39:35.803Z,27.13
2022-09-04T14:44:37.414Z,27.17
2022-09-04T14:49:41.597Z,26.95
2022-09-04T14:54:43.866Z,26.72
2022-09-04T14:59:48.060Z,26.79
2022-09-04T15:04:50.291Z,26.54
2022-09-04T15:09:54.430Z,26.32
2022-09-04T15:14:58.591Z,26.16
2022-09-04T15:20:02.794Z,25.98
2022-09-04T15:25:06.930Z,25.94
2022-09-04T15:30:11.063Z,25.90
2022-09-04T15:35:15.236Z,25.87
2022-09-04T15:40:19.429Z,25.88
2022-09-04T15:45:23.596Z,25.83
2022-09-04T15:50:27.705Z,26.02
2022-09-04T15:55:31.927Z,26.29
2022-09-04T16:00:36.035Z,25.98
2022-09-04T16:05:40.183Z,26.01
2022-09-04T16:10:44.348Z,25.87
2022-09-04T16:15:48.567Z,25.92
2022-09-04T16:20:52.670Z,25.82
2022-09-04T16:25:56.837Z,25.79
2022-09-04T16:31:01.038Z,25.44
2022-09-04T16:36:05.169Z,25.05
2022-09-04T16:41:09.293Z,24.81
2022-09-04T16:46:13.592Z,24.65
2022-09-04T16:51:40.441Z,24.51
2022-09-04T16:56:19.914Z,24.41
2022-09-04T17:01:24.171Z,24.33
2022-09-04T17:06:28.218Z,24.27
2022-09-04T17:11:30.470Z,24.29
2022-09-04T17:16:34.665Z,24.16
2022-09-04T17:26:26.736Z,24.04
2022-09-04T17:29:12.860Z,23.87
2022-09-04T17:31:47.142Z,23.67
2022-09-04T17:40:39.585Z,23.51
2022-09-04T17:42:08.340Z,23.33
2022-09-04T17:46:59.613Z,23.20
2022-09-04T17:52:03.743Z,23.00
2022-09-04T17:57:07.924Z,22.79
2022-09-04T18:02:12.125Z,22.60
2022-09-04T18:07:53.141Z,22.40
2022-09-04T18:12:20.379Z,22.20
2022-09-04T18:17:24.542Z,22.02
2022-09-04T18:22:33.601Z,21.87
2022-09-04T18:27:32.931Z,21.70
2022-09-04T18:37:23.397Z,21.56
2022-09-04T18:37:46.423Z,21.39
2022-09-04T18:50:25.756Z,21.23
2022-09-04T18:50:51.124Z,21.10
2022-09-04T18:52:53.669Z,20.99
2022-09-04T18:57:55.954Z,20.78
2022-09-04T19:03:00.060Z,20.62
2022-09-04T19:08:02.398Z,20.54
2022-09-04T19:13:06.522Z,20.49
2022-09-04T19:18:10.755Z,20.40
2022-09-04T19:23:15.612Z,20.35
2022-09-04T19:28:19.100Z,20.21
2022-09-04T19:33:23.160Z,20.08
2022-09-04T19:45:02.333Z,19.97
2022-09-04T19:46:11.850Z,19.82
2022-09-04T19:48:35.802Z,19.68
2022-09-04T19:53:46.697Z,19.57
2022-09-04T19:58:44.313Z,19.50
2022-09-04T20:03:48.178Z,19.37
2022-09-04T20:08:52.464Z,19.24
2022-09-04T20:19:00.588Z,18.97
2022-09-04T20:24:04.749Z,18.81
2022-09-04T20:29:08.894Z,18.74
2022-09-04T20:34:13.087Z,18.65
2022-09-04T20:39:17.227Z,18.54
2022-09-04T20:44:21.356Z,18.50
2022-09-04T20:52:56.703Z,18.46
2022-09-04T20:54:29.771Z,18.38
2022-09-04T21:03:07.432Z,18.20
2022-09-04T21:04:42.179Z,18.04
2022-09-04T21:09:49.552Z,17.94
2022-09-04T21:14:45.398Z,17.90
2022-09-04T21:19:48.589Z,17.85
2022-09-04T21:24:52.789Z,17.72
2022-09-04T21:29:56.929Z,17.61
2022-09-04T21:35:01.060Z,17.52
2022-09-04T21:40:05.307Z,17.48
2022-09-04T21:45:09.397Z,17.41
2022-09-04T21:50:13.584Z,17.39
2022-09-04T21:57:28.739Z,17.29
2022-09-04T22:02:40.620Z,17.26
2022-09-04T22:05:26.055Z,17.23
2022-09-04T22:13:29.247Z,17.19
2022-09-04T22:15:34.347Z,17.11
2022-09-04T22:20:43.259Z,17.00
2022-09-04T22:25:42.666Z,16.96
2022-09-04T22:30:46.817Z,16.91
2022-09-04T22:35:50.980Z,16.82
2022-09-04T22:40:56.305Z,16.76
2022-09-04T22:45:57.424Z,16.73
2022-09-04T22:51:01.582Z,16.67
2022-09-04T22:56:24.212Z,16.67
2022-09-04T23:01:09.916Z,16.67
2022-09-04T23:09:04.520Z,16.64
2022-09-04T23:13:52.087Z,16.56
2022-09-04T23:16:26.274Z,16.47
2022-09-04T23:26:46.607Z,16.45
2022-09-04T23:26:54.235Z,16.42
2022-09-04T23:31:37.152Z,16.36
2022-09-04T23:36:39.033Z,16.31
2022-09-04T23:41:44.290Z,16.26
2022-09-04T23:46:47.413Z,16.25
2022-09-04T23:51:51.473Z,16.31
2022-09-04T23:56:57.838Z,16.30
